Kzyl-Orda, Kazakhstan

4:35 AM AQTT on December 22, 2014 (GMT +0500)
Kzyl-Orda | Change Station
CLOSE
Current Station
Airport
Location: Kzyl-Orda,
Elevation: 423 ft
Nearby Weather Stations

Elev 423 ft 44.71 °N, 65.59 °E | Updated 35 minutes ago

Mostly Cloudy
Mostly Cloudy
18 °F
Feels Like 18 °F
N
2
Wind Variable Wind from NW

Today
High -- | Low -- °F
--% Chance of Precip.
Yesterday
High -- | Low -- °F
Precip. -- in
8:12 AM 5:00 PM
Waning Crescent, 0% visible
Pressure 30.09 in
Visibility 1.3 miles
Clouds Mostly Cloudy 600 ft
Dew Point 16 °F
Humidity 93%
Rainfall 0.00 in
Snow Depth Not available.
UV 0 out of 12
Pollen Not available.
Air Quality Not available.
Flu Activity Not available.
METAR UAOO 212300Z 31001MPS 2100 BR BKN006 M08/M09 Q1019 NOSIG RMK QBB200 QFE752/1003

More Conditions Fewer Conditions

Pressure 30.09 in
Visibility 1.3 miles
Clouds Mostly Cloudy 600 ft
Dew Point 16 °F
Humidity 93%
Rainfall 0.00 in
Snow Depth Not available.
UV 0 out of 12
Pollen Not available.
Air Quality Not available.
Flu Activity Not available.
METAR UAOO 212300Z 31001MPS 2100 BR BKN006 M08/M09 Q1019 NOSIG RMK QBB200 QFE752/1003

More Conditions Fewer Conditions

10-Day Weather Forecast

Almanac

Astronomy

Dec. 22, 2014 Rise Set
Actual Time
Civil Twilight
Nautical Twilight
Astronomical Twilight
Moon
Length of Visible Light
Length of Day
Tomorrow will be .
, % of the Moon is Illuminated

Today's Extremes

Country Highs Country Lows

Community

WunderPhotos

Upload Photos

1,779,503 photos uploaded!

WunderBlogs® & News

Nearby

Air Quality

  Air Quality AQ Index Pollutant
Not available.

Snow Depth

Station Depth Elevation

Earthquake Activity

City Distance Mag. Time & Date
Minimum magnitude displayed is 2.5.

Coastal Water Temperatures

Place Temperature

Nearby Weather Stations